sensor_id;sensor_type;location;lat;lon;timestamp;temperature;humidity
17762;DHT22;9005;48.838;10.112;2023-11-18T07:08:35;20.80;55.10
17762;DHT22;9005;48.838;10.112;2023-11-18T07:11:02;20.40;55.30
17762;DHT22;9005;48.838;10.112;2023-11-18T07:13:29;16.50;62.00
17762;DHT22;9005;48.838;10.112;2023-11-18T07:15:57;14.00;70.00
17762;DHT22;9005;48.838;10.112;2023-11-18T07:18:23;13.40;72.40
17762;DHT22;9005;48.838;10.112;2023-11-18T07:20:51;13.00;73.70
17762;DHT22;9005;48.838;10.112;2023-11-18T07:23:18;12.80;74.10
17762;DHT22;9005;48.838;10.112;2023-11-18T07:25:45;12.80;74.10
17762;DHT22;9005;48.838;10.112;2023-11-18T07:28:11;12.70;73.70
17762;DHT22;9005;48.838;10.112;2023-11-18T07:30:40;12.70;73.60
17762;DHT22;9005;48.838;10.112;2023-11-18T07:33:09;12.70;73.40
17762;DHT22;9005;48.838;10.112;2023-11-18T07:35:36;12.70;72.90
17762;DHT22;9005;48.838;10.112;2023-11-18T07:38:03;12.70;72.60
17762;DHT22;9005;48.838;10.112;2023-11-18T07:40:32;12.80;72.40
17762;DHT22;9005;48.838;10.112;2023-11-18T07:42:59;12.80;73.50
17762;DHT22;9005;48.838;10.112;2023-11-18T07:45:27;12.80;76.20
17762;DHT22;9005;48.838;10.112;2023-11-18T07:47:54;13.00;77.20
17762;DHT22;9005;48.838;10.112;2023-11-18T07:50:22;13.20;77.10
17762;DHT22;9005;48.838;10.112;2023-11-18T07:52:50;13.40;76.10
17762;DHT22;9005;48.838;10.112;2023-11-18T07:55:17;13.50;73.80
17762;DHT22;9005;48.838;10.112;2023-11-18T07:57:44;14.20;71.90
17762;DHT22;9005;48.838;10.112;2023-11-18T08:00:12;15.00;67.90
17762;DHT22;9005;48.838;10.112;2023-11-18T08:02:40;15.80;66.40
17762;DHT22;9005;48.838;10.112;2023-11-18T08:05:07;15.80;66.20
17762;DHT22;9005;48.838;10.112;2023-11-18T08:07:36;16.00;63.30
17762;DHT22;9005;48.838;10.112;2023-11-18T08:10:04;16.50;64.80
17762;DHT22;9005;48.838;10.112;2023-11-18T08:12:31;17.10;63.20
17762;DHT22;9005;48.838;10.112;2023-11-18T08:14:59;17.80;60.40
17762;DHT22;9005;48.838;10.112;2023-11-18T08:17:26;18.00;58.90
17762;DHT22;9005;48.838;10.112;2023-11-18T08:19:53;18.30;58.30
17762;DHT22;9005;48.838;10.112;2023-11-18T08:22:21;18.90;57.10
17762;DHT22;9005;48.838;10.112;2023-11-18T08:24:50;18.80;55.80
17762;DHT22;9005;48.838;10.112;2023-11-18T08:27:16;19.10;55.50
17762;DHT22;9005;48.838;10.112;2023-11-18T08:29:43;19.60;55.20
17762;DHT22;9005;48.838;10.112;2023-11-18T08:32:12;20.10;52.70
17762;DHT22;9005;48.838;10.112;2023-11-18T08:34:38;19.50;53.50
17762;DHT22;9005;48.838;10.112;2023-11-18T08:37:06;18.70;53.50
17762;DHT22;9005;48.838;10.112;2023-11-18T08:39:34;18.40;54.60
17762;DHT22;9005;48.838;10.112;2023-11-18T08:42:03;18.60;54.40
17762;DHT22;9005;48.838;10.112;2023-11-18T08:44:29;18.50;53.90
17762;DHT22;9005;48.838;10.112;2023-11-18T08:46:57;18.60;53.60
17762;DHT22;9005;48.838;10.112;2023-11-18T08:49:24;18.30;53.50
17762;DHT22;9005;48.838;10.112;2023-11-18T08:51:51;18.00;54.50
17762;DHT22;9005;48.838;10.112;2023-11-18T08:54:21;17.60;53.80
17762;DHT22;9005;48.838;10.112;2023-11-18T08:57:04;17.10;54.50
17762;DHT22;9005;48.838;10.112;2023-11-18T08:59:45;16.70;56.80
17762;DHT22;9005;48.838;10.112;2023-11-18T09:02:11;16.80;56.70
17762;DHT22;9005;48.838;10.112;2023-11-18T09:04:40;16.60;56.20
17762;DHT22;9005;48.838;10.112;2023-11-18T09:07:08;16.20;58.00
17762;DHT22;9005;48.838;10.112;2023-11-18T09:09:35;16.00;57.40
17762;DHT22;9005;48.838;10.112;2023-11-18T09:12:04;15.70;58.30
17762;DHT22;9005;48.838;10.112;2023-11-18T09:14:34;15.40;60.50
17762;DHT22;9005;48.838;10.112;2023-11-18T09:17:00;15.20;60.30
17762;DHT22;9005;48.838;10.112;2023-11-18T09:19:27;15.00;60.60
17762;DHT22;9005;48.838;10.112;2023-11-18T09:21:55;14.90;60.30
17762;DHT22;9005;48.838;10.112;2023-11-18T09:24:22;14.90;59.50
17762;DHT22;9005;48.838;10.112;2023-11-18T09:26:50;14.90;61.00
17762;DHT22;9005;48.838;10.112;2023-11-18T09:29:18;15.10;60.70
17762;DHT22;9005;48.838;10.112;2023-11-18T09:31:49;15.20;60.20
17762;DHT22;9005;48.838;10.112;2023-11-18T09:34:18;15.20;60.50
17762;DHT22;9005;48.838;10.112;2023-11-18T09:36:53;15.20;60.70
17762;DHT22;9005;48.838;10.112;2023-11-18T09:39:20;15.20;61.20
17762;DHT22;9005;48.838;10.112;2023-11-18T09:42:04;15.20;61.50
17762;DHT22;9005;48.838;10.112;2023-11-18T09:44:36;15.40;60.70
17762;DHT22;9005;48.838;10.112;2023-11-18T09:47:07;15.50;59.70
17762;DHT22;9005;48.838;10.112;2023-11-18T09:49:40;15.70;59.30
17762;DHT22;9005;48.838;10.112;2023-11-18T09:52:07;15.70;58.40
17762;DHT22;9005;48.838;10.112;2023-11-18T09:54:36;15.70;59.10
17762;DHT22;9005;48.838;10.112;2023-11-18T09:57:10;15.60;58.80
17762;DHT22;9005;48.838;10.112;2023-11-18T09:59:49;15.40;59.60
17762;DHT22;9005;48.838;10.112;2023-11-18T10:02:20;15.40;59.70
17762;DHT22;9005;48.838;10.112;2023-11-18T10:04:49;15.40;59.90
17762;DHT22;9005;48.838;10.112;2023-11-18T10:07:23;15.40;59.10
17762;DHT22;9005;48.838;10.112;2023-11-18T10:09:53;15.20;59.40
17762;DHT22;9005;48.838;10.112;2023-11-18T10:12:22;15.10;61.20
17762;DHT22;9005;48.838;10.112;2023-11-18T10:14:51;15.20;60.00
17762;DHT22;9005;48.838;10.112;2023-11-18T10:17:18;15.30;59.00
17762;DHT22;9005;48.838;10.112;2023-11-18T10:19:54;15.20;58.90
17762;DHT22;9005;48.838;10.112;2023-11-18T10:22:23;15.10;59.20
17762;DHT22;9005;48.838;10.112;2023-11-18T10:24:53;15.20;59.10
17762;DHT22;9005;48.838;10.112;2023-11-18T10:27:22;15.20;59.00
17762;DHT22;9005;48.838;10.112;2023-11-18T10:29:55;15.20;58.70
17762;DHT22;9005;48.838;10.112;2023-11-18T10:32:22;15.30;58.70
17762;DHT22;9005;48.838;10.112;2023-11-18T10:34:53;15.40;58.30
17762;DHT22;9005;48.838;10.112;2023-11-18T10:37:20;15.40;57.90
17762;DHT22;9005;48.838;10.112;2023-11-18T10:39:48;15.20;58.00
17762;DHT22;9005;48.838;10.112;2023-11-18T10:42:17;15.10;57.40
17762;DHT22;9005;48.838;10.112;2023-11-18T10:44:56;15.00;56.90
17762;DHT22;9005;48.838;10.112;2023-11-18T10:47:24;15.10;57.60
17762;DHT22;9005;48.838;10.112;2023-11-18T10:49:52;14.90;57.70
17762;DHT22;9005;48.838;10.112;2023-11-18T10:52:19;14.80;58.10
17762;DHT22;9005;48.838;10.112;2023-11-18T10:54:50;14.80;58.60
17762;DHT22;9005;48.838;10.112;2023-11-18T10:57:20;14.90;59.30
17762;DHT22;9005;48.838;10.112;2023-11-18T11:00:00;15.10;60.00
17762;DHT22;9005;48.838;10.112;2023-11-18T11:02:30;15.20;59.80
17762;DHT22;9005;48.838;10.112;2023-11-18T11:05:00;15.00;59.50
17762;DHT22;9005;48.838;10.112;2023-11-18T11:07:29;14.80;59.90
17762;DHT22;9005;48.838;10.112;2023-11-18T11:09:58;14.60;60.00
17762;DHT22;9005;48.838;10.112;2023-11-18T11:12:33;14.40;60.40
17762;DHT22;9005;48.838;10.112;2023-11-18T11:15:08;14.30;60.90
17762;DHT22;9005;48.838;10.112;2023-11-18T11:17:40;14.30;60.60
17762;DHT22;9005;48.838;10.112;2023-11-18T11:20:13;14.40;60.70
17762;DHT22;9005;48.838;10.112;2023-11-18T11:23:00;16.30;64.50
17762;DHT22;9005;48.838;10.112;2023-11-18T11:25:36;13.30;50.20
17762;DHT22;9005;48.838;10.112;2023-11-18T11:28:10;15.40;43.30
17762;DHT22;9005;48.838;10.112;2023-11-18T11:30:44;15.20;43.30
17762;DHT22;9005;48.838;10.112;2023-11-18T11:33:16;14.50;43.90
17762;DHT22;9005;48.838;10.112;2023-11-18T11:35:49;13.20;45.20
17762;DHT22;9005;48.838;10.112;2023-11-18T11:38:23;11.80;47.90
17762;DHT22;9005;48.838;10.112;2023-11-18T11:40:50;10.70;51.10
17762;DHT22;9005;48.838;10.112;2023-11-18T11:43:18;10.10;53.70
17762;DHT22;9005;48.838;10.112;2023-11-18T11:45:49;9.70;54.90
17762;DHT22;9005;48.838;10.112;2023-11-18T11:48:18;9.20;55.40
17762;DHT22;9005;48.838;10.112;2023-11-18T11:51:07;8.70;56.40
17762;DHT22;9005;48.838;10.112;2023-11-18T11:53:44;8.30;58.30
17762;DHT22;9005;48.838;10.112;2023-11-18T11:56:13;8.20;58.80
17762;DHT22;9005;48.838;10.112;2023-11-18T11:58:45;8.20;59.10
17762;DHT22;9005;48.838;10.112;2023-11-18T12:01:24;8.20;58.60
17762;DHT22;9005;48.838;10.112;2023-11-18T12:03:56;8.30;59.80
17762;DHT22;9005;48.838;10.112;2023-11-18T12:06:23;8.10;58.60
17762;DHT22;9005;48.838;10.112;2023-11-18T12:08:52;8.10;59.10
17762;DHT22;9005;48.838;10.112;2023-11-18T12:11:19;8.10;59.40
17762;DHT22;9005;48.838;10.112;2023-11-18T12:14:00;8.20;60.10
17762;DHT22;9005;48.838;10.112;2023-11-18T12:17:03;8.40;59.00
17762;DHT22;9005;48.838;10.112;2023-11-18T12:19:40;8.80;58.10
17762;DHT22;9005;48.838;10.112;2023-11-18T12:22:14;8.90;57.60
17762;DHT22;9005;48.838;10.112;2023-11-18T12:28:14;9.10;56.50
17762;DHT22;9005;48.838;10.112;2023-11-18T12:30:43;9.10;57.60
17762;DHT22;9005;48.838;10.112;2023-11-18T12:33:23;9.10;56.00
17762;DHT22;9005;48.838;10.112;2023-11-18T12:39:40;8.80;54.20
17762;DHT22;9005;48.838;10.112;2023-11-18T12:42:09;8.40;56.90
17762;DHT22;9005;48.838;10.112;2023-11-18T12:44:58;8.10;55.70
17762;DHT22;9005;48.838;10.112;2023-11-18T12:47:41;8.00;60.80
17762;DHT22;9005;48.838;10.112;2023-11-18T12:50:12;8.10;64.50
17762;DHT22;9005;48.838;10.112;2023-11-18T12:52:49;8.30;64.60
17762;DHT22;9005;48.838;10.112;2023-11-18T12:55:16;8.30;64.50
17762;DHT22;9005;48.838;10.112;2023-11-18T12:57:46;8.40;65.00
17762;DHT22;9005;48.838;10.112;2023-11-18T13:00:14;8.40;64.90
17762;DHT22;9005;48.838;10.112;2023-11-18T13:02:44;8.50;65.00
17762;DHT22;9005;48.838;10.112;2023-11-18T13:05:12;8.50;65.00
17762;DHT22;9005;48.838;10.112;2023-11-18T13:07:40;8.50;65.10
17762;DHT22;9005;48.838;10.112;2023-11-18T13:10:09;8.50;65.70
17762;DHT22;9005;48.838;10.112;2023-11-18T13:12:41;8.70;65.60
17762;DHT22;9005;48.838;10.112;2023-11-18T13:15:08;8.70;64.90
17762;DHT22;9005;48.838;10.112;2023-11-18T13:17:35;8.70;65.50
17762;DHT22;9005;48.838;10.112;2023-11-18T13:20:12;8.60;65.10
17762;DHT22;9005;48.838;10.112;2023-11-18T13:22:41;8.20;65.90
17762;DHT22;9005;48.838;10.112;2023-11-18T13:25:08;8.00;67.50
17762;DHT22;9005;48.838;10.112;2023-11-18T13:27:35;7.90;68.30
17762;DHT22;9005;48.838;10.112;2023-11-18T13:30:05;7.80;68.80
17762;DHT22;9005;48.838;10.112;2023-11-18T13:32:40;7.70;68.60
17762;DHT22;9005;48.838;10.112;2023-11-18T13:35:07;7.60;68.90
17762;DHT22;9005;48.838;10.112;2023-11-18T13:37:36;7.50;69.20
17762;DHT22;9005;48.838;10.112;2023-11-18T13:40:03;7.40;68.90
17762;DHT22;9005;48.838;10.112;2023-11-18T13:42:31;7.40;69.40
17762;DHT22;9005;48.838;10.112;2023-11-18T13:44:59;7.30;69.80
17762;DHT22;9005;48.838;10.112;2023-11-18T13:47:26;7.20;69.50
17762;DHT22;9005;48.838;10.112;2023-11-18T13:49:54;7.10;70.00
17762;DHT22;9005;48.838;10.112;2023-11-18T13:52:23;7.00;70.20
17762;DHT22;9005;48.838;10.112;2023-11-18T13:54:52;6.90;71.10
17762;DHT22;9005;48.838;10.112;2023-11-18T13:57:21;6.80;71.30
17762;DHT22;9005;48.838;10.112;2023-11-18T13:59:49;6.60;71.90
17762;DHT22;9005;48.838;10.112;2023-11-18T14:02:16;6.60;72.30
17762;DHT22;9005;48.838;10.112;2023-11-18T14:04:42;6.50;72.50
17762;DHT22;9005;48.838;10.112;2023-11-18T14:07:13;6.40;73.00
17762;DHT22;9005;48.838;10.112;2023-11-18T14:09:42;6.30;73.10
17762;DHT22;9005;48.838;10.112;2023-11-18T14:12:12;6.20;73.10
17762;DHT22;9005;48.838;10.112;2023-11-18T14:14:39;6.10;73.90
17762;DHT22;9005;48.838;10.112;2023-11-18T14:17:07;6.10;74.50
17762;DHT22;9005;48.838;10.112;2023-11-18T14:19:35;6.00;73.60
17762;DHT22;9005;48.838;10.112;2023-11-18T14:22:03;6.00;73.90
17762;DHT22;9005;48.838;10.112;2023-11-18T14:24:32;5.90;74.00
17762;DHT22;9005;48.838;10.112;2023-11-18T14:27:00;5.80;74.10
17762;DHT22;9005;48.838;10.112;2023-11-18T14:29:28;5.70;74.60
17762;DHT22;9005;48.838;10.112;2023-11-18T14:31:55;5.70;74.80
17762;DHT22;9005;48.838;10.112;2023-11-18T14:34:21;5.60;75.20
17762;DHT22;9005;48.838;10.112;2023-11-18T14:36:49;5.60;75.10
17762;DHT22;9005;48.838;10.112;2023-11-18T14:39:16;5.50;75.10
17762;DHT22;9005;48.838;10.112;2023-11-18T14:41:47;5.50;75.80
17762;DHT22;9005;48.838;10.112;2023-11-18T14:44:14;5.50;75.70
17762;DHT22;9005;48.838;10.112;2023-11-18T14:46:42;5.50;75.70
17762;DHT22;9005;48.838;10.112;2023-11-18T14:49:10;5.50;76.00
17762;DHT22;9005;48.838;10.112;2023-11-18T14:51:37;5.40;75.80
17762;DHT22;9005;48.838;10.112;2023-11-18T14:54:05;5.40;75.50
17762;DHT22;9005;48.838;10.112;2023-11-18T14:56:32;5.40;75.50
17762;DHT22;9005;48.838;10.112;2023-11-18T14:59:00;5.40;75.40
17762;DHT22;9005;48.838;10.112;2023-11-18T15:01:27;5.40;75.50
17762;DHT22;9005;48.838;10.112;2023-11-18T15:18:51;5.60;74.90
17762;DHT22;9005;48.838;10.112;2023-11-18T15:21:18;5.20;75.90
17762;DHT22;9005;48.838;10.112;2023-11-18T15:23:44;5.10;76.20
17762;DHT22;9005;48.838;10.112;2023-11-18T15:26:13;5.10;75.70
17762;DHT22;9005;48.838;10.112;2023-11-18T15:28:40;5.10;75.90
17762;DHT22;9005;48.838;10.112;2023-11-18T15:31:07;5.00;76.40
17762;DHT22;9005;48.838;10.112;2023-11-18T15:33:34;5.00;76.60
17762;DHT22;9005;48.838;10.112;2023-11-18T15:36:02;5.00;76.70
17762;DHT22;9005;48.838;10.112;2023-11-18T15:38:30;5.00;76.10
17762;DHT22;9005;48.838;10.112;2023-11-18T15:40:59;5.00;76.30
17762;DHT22;9005;48.838;10.112;2023-11-18T15:43:26;5.00;77.00
17762;DHT22;9005;48.838;10.112;2023-11-18T15:45:53;5.00;77.10
17762;DHT22;9005;48.838;10.112;2023-11-18T15:48:21;5.00;78.00
17762;DHT22;9005;48.838;10.112;2023-11-18T15:50:48;5.10;77.90
17762;DHT22;9005;48.838;10.112;2023-11-18T15:53:16;5.10;77.60
17762;DHT22;9005;48.838;10.112;2023-11-18T15:55:45;5.10;77.50
17762;DHT22;9005;48.838;10.112;2023-11-18T15:58:13;5.10;78.00
17762;DHT22;9005;48.838;10.112;2023-11-18T16:00:39;5.10;78.10
17762;DHT22;9005;48.838;10.112;2023-11-18T16:03:06;5.10;78.30
17762;DHT22;9005;48.838;10.112;2023-11-18T16:05:34;5.10;78.00
17762;DHT22;9005;48.838;10.112;2023-11-18T16:08:01;5.10;78.40
17762;DHT22;9005;48.838;10.112;2023-11-18T16:10:29;5.10;78.60
17762;DHT22;9005;48.838;10.112;2023-11-18T16:12:57;5.00;78.60
17762;DHT22;9005;48.838;10.112;2023-11-18T16:15:25;5.00;78.80
17762;DHT22;9005;48.838;10.112;2023-11-18T16:17:53;5.00;79.20
17762;DHT22;9005;48.838;10.112;2023-11-18T16:20:21;5.00;79.50
17762;DHT22;9005;48.838;10.112;2023-11-18T16:22:49;4.90;79.80
17762;DHT22;9005;48.838;10.112;2023-11-18T16:25:16;4.90;79.90
17762;DHT22;9005;48.838;10.112;2023-11-18T16:27:47;4.90;79.90
17762;DHT22;9005;48.838;10.112;2023-11-18T16:30:14;4.90;80.10
17762;DHT22;9005;48.838;10.112;2023-11-18T16:32:42;4.90;80.00
17762;DHT22;9005;48.838;10.112;2023-11-18T16:35:10;4.90;80.30
17762;DHT22;9005;48.838;10.112;2023-11-18T16:37:37;4.90;80.10
17762;DHT22;9005;48.838;10.112;2023-11-18T16:40:06;4.90;80.30
17762;DHT22;9005;48.838;10.112;2023-11-18T16:42:35;4.90;80.20
17762;DHT22;9005;48.838;10.112;2023-11-18T16:45:04;4.90;80.50
17762;DHT22;9005;48.838;10.112;2023-11-18T16:47:31;4.90;80.60
17762;DHT22;9005;48.838;10.112;2023-11-18T16:49:58;4.90;80.50
17762;DHT22;9005;48.838;10.112;2023-11-18T16:52:25;4.90;80.60
17762;DHT22;9005;48.838;10.112;2023-11-18T16:54:51;4.90;80.60
17762;DHT22;9005;48.838;10.112;2023-11-18T16:57:18;4.90;80.80
17762;DHT22;9005;48.838;10.112;2023-11-18T16:59:45;4.90;80.90
17762;DHT22;9005;48.838;10.112;2023-11-18T17:02:13;4.90;80.70
17762;DHT22;9005;48.838;10.112;2023-11-18T17:04:40;4.90;80.80
17762;DHT22;9005;48.838;10.112;2023-11-18T17:07:07;4.90;80.70
17762;DHT22;9005;48.838;10.112;2023-11-18T17:09:35;4.90;80.50
17762;DHT22;9005;48.838;10.112;2023-11-18T17:12:01;4.90;80.40
17762;DHT22;9005;48.838;10.112;2023-11-18T17:14:28;5.00;80.70
17762;DHT22;9005;48.838;10.112;2023-11-18T17:16:55;5.00;80.70
17762;DHT22;9005;48.838;10.112;2023-11-18T17:19:23;5.00;80.60
17762;DHT22;9005;48.838;10.112;2023-11-18T17:21:50;5.00;80.70
17762;DHT22;9005;48.838;10.112;2023-11-18T17:24:17;4.90;80.70
17762;DHT22;9005;48.838;10.112;2023-11-18T17:26:43;5.00;80.60
17762;DHT22;9005;48.838;10.112;2023-11-18T17:29:10;5.00;81.10
17762;DHT22;9005;48.838;10.112;2023-11-18T17:31:39;4.90;81.50
17762;DHT22;9005;48.838;10.112;2023-11-18T17:34:06;4.90;81.70
17762;DHT22;9005;48.838;10.112;2023-11-18T17:36:35;4.90;82.30
17762;DHT22;9005;48.838;10.112;2023-11-18T17:39:02;4.80;83.10
17762;DHT22;9005;48.838;10.112;2023-11-18T17:41:29;4.80;83.00
17762;DHT22;9005;48.838;10.112;2023-11-18T17:43:56;4.80;83.00
17762;DHT22;9005;48.838;10.112;2023-11-18T17:46:23;4.80;82.90
17762;DHT22;9005;48.838;10.112;2023-11-18T17:48:49;4.70;82.90
17762;DHT22;9005;48.838;10.112;2023-11-18T17:51:16;4.70;82.70
17762;DHT22;9005;48.838;10.112;2023-11-18T17:53:44;4.80;82.70
17762;DHT22;9005;48.838;10.112;2023-11-18T17:56:13;4.80;82.60
17762;DHT22;9005;48.838;10.112;2023-11-18T17:58:40;4.80;82.90
17762;DHT22;9005;48.838;10.112;2023-11-18T18:01:07;4.80;82.70
17762;DHT22;9005;48.838;10.112;2023-11-18T18:03:34;4.80;83.20
17762;DHT22;9005;48.838;10.112;2023-11-18T18:06:01;4.80;82.80
17762;DHT22;9005;48.838;10.112;2023-11-18T18:08:29;4.90;83.10
17762;DHT22;9005;48.838;10.112;2023-11-18T18:10:57;4.90;82.80
17762;DHT22;9005;48.838;10.112;2023-11-18T18:13:23;4.90;82.80
17762;DHT22;9005;48.838;10.112;2023-11-18T18:15:50;4.90;82.90
17762;DHT22;9005;48.838;10.112;2023-11-18T18:18:17;4.90;82.90
17762;DHT22;9005;48.838;10.112;2023-11-18T18:20:44;4.90;83.00
17762;DHT22;9005;48.838;10.112;2023-11-18T18:23:13;4.90;83.00
17762;DHT22;9005;48.838;10.112;2023-11-18T18:25:40;5.00;82.50
17762;DHT22;9005;48.838;10.112;2023-11-18T18:28:09;5.00;82.50
17762;DHT22;9005;48.838;10.112;2023-11-18T18:30:35;5.00;82.30
17762;DHT22;9005;48.838;10.112;2023-11-18T18:33:03;5.00;82.20
17762;DHT22;9005;48.838;10.112;2023-11-18T18:35:30;4.90;82.40
17762;DHT22;9005;48.838;10.112;2023-11-18T18:37:56;5.00;82.40
17762;DHT22;9005;48.838;10.112;2023-11-18T18:40:23;5.00;82.90
17762;DHT22;9005;48.838;10.112;2023-11-18T18:42:50;5.00;82.70
17762;DHT22;9005;48.838;10.112;2023-11-18T18:45:18;5.00;82.90
17762;DHT22;9005;48.838;10.112;2023-11-18T18:47:45;5.00;83.00
17762;DHT22;9005;48.838;10.112;2023-11-18T18:50:12;5.00;82.80
17762;DHT22;9005;48.838;10.112;2023-11-18T18:52:39;5.00;82.60
17762;DHT22;9005;48.838;10.112;2023-11-18T18:55:07;5.10;82.50
17762;DHT22;9005;48.838;10.112;2023-11-18T18:57:34;5.10;82.50
17762;DHT22;9005;48.838;10.112;2023-11-18T19:00:01;5.10;83.10
17762;DHT22;9005;48.838;10.112;2023-11-18T19:02:31;5.10;83.30
17762;DHT22;9005;48.838;10.112;2023-11-18T19:04:57;5.00;83.50
17762;DHT22;9005;48.838;10.112;2023-11-18T19:07:24;5.00;84.50
17762;DHT22;9005;48.838;10.112;2023-11-18T19:09:54;4.90;85.10
17762;DHT22;9005;48.838;10.112;2023-11-18T19:12:21;4.90;85.60
17762;DHT22;9005;48.838;10.112;2023-11-18T19:14:47;4.80;86.20
17762;DHT22;9005;48.838;10.112;2023-11-18T19:17:14;4.80;86.80
17762;DHT22;9005;48.838;10.112;2023-11-18T19:19:42;4.80;86.90
17762;DHT22;9005;48.838;10.112;2023-11-18T19:22:09;4.70;87.10
17762;DHT22;9005;48.838;10.112;2023-11-18T19:24:36;4.70;87.30
17762;DHT22;9005;48.838;10.112;2023-11-18T19:27:04;4.70;87.70
17762;DHT22;9005;48.838;10.112;2023-11-18T19:29:35;4.60;87.60
17762;DHT22;9005;48.838;10.112;2023-11-18T19:32:01;4.60;87.60
17762;DHT22;9005;48.838;10.112;2023-11-18T19:34:29;4.60;87.90
17762;DHT22;9005;48.838;10.112;2023-11-18T19:36:57;4.60;88.00
17762;DHT22;9005;48.838;10.112;2023-11-18T19:39:24;4.60;88.10
17762;DHT22;9005;48.838;10.112;2023-11-18T19:41:52;4.60;88.20
17762;DHT22;9005;48.838;10.112;2023-11-18T19:44:19;4.60;88.40
17762;DHT22;9005;48.838;10.112;2023-11-18T19:46:46;4.60;87.70
17762;DHT22;9005;48.838;10.112;2023-11-18T19:49:15;4.60;88.00
17762;DHT22;9005;48.838;10.112;2023-11-18T19:51:42;4.50;88.10
17762;DHT22;9005;48.838;10.112;2023-11-18T19:54:12;4.60;88.30
17762;DHT22;9005;48.838;10.112;2023-11-18T19:56:38;4.50;88.60
17762;DHT22;9005;48.838;10.112;2023-11-18T19:59:05;4.50;88.50
17762;DHT22;9005;48.838;10.112;2023-11-18T20:01:33;4.50;88.60
17762;DHT22;9005;48.838;10.112;2023-11-18T20:03:59;4.50;88.80
17762;DHT22;9005;48.838;10.112;2023-11-18T20:06:26;4.50;89.10
17762;DHT22;9005;48.838;10.112;2023-11-18T20:08:53;4.50;88.80
17762;DHT22;9005;48.838;10.112;2023-11-18T20:11:21;4.50;89.00
17762;DHT22;9005;48.838;10.112;2023-11-18T20:13:48;4.50;89.20
17762;DHT22;9005;48.838;10.112;2023-11-18T20:16:14;4.50;89.50
17762;DHT22;9005;48.838;10.112;2023-11-18T20:18:41;4.40;89.70
17762;DHT22;9005;48.838;10.112;2023-11-18T20:21:08;4.40;89.70
17762;DHT22;9005;48.838;10.112;2023-11-18T20:23:35;4.40;89.70
17762;DHT22;9005;48.838;10.112;2023-11-18T20:26:03;4.40;89.50
17762;DHT22;9005;48.838;10.112;2023-11-18T20:28:31;4.40;89.50
17762;DHT22;9005;48.838;10.112;2023-11-18T20:30:59;4.40;89.20
17762;DHT22;9005;48.838;10.112;2023-11-18T20:33:26;4.40;88.70
17762;DHT22;9005;48.838;10.112;2023-11-18T20:35:53;4.40;89.30
17762;DHT22;9005;48.838;10.112;2023-11-18T20:38:20;4.40;89.10
17762;DHT22;9005;48.838;10.112;2023-11-18T20:40:46;4.40;89.40
17762;DHT22;9005;48.838;10.112;2023-11-18T20:43:14;4.40;89.60
17762;DHT22;9005;48.838;10.112;2023-11-18T20:45:43;4.40;89.60
17762;DHT22;9005;48.838;10.112;2023-11-18T20:48:10;4.40;89.90
17762;DHT22;9005;48.838;10.112;2023-11-18T20:50:36;4.40;88.40
17762;DHT22;9005;48.838;10.112;2023-11-18T20:53:04;4.30;88.60
17762;DHT22;9005;48.838;10.112;2023-11-18T20:55:30;4.40;89.40
17762;DHT22;9005;48.838;10.112;2023-11-18T20:57:57;4.40;89.40
17762;DHT22;9005;48.838;10.112;2023-11-18T21:00:24;4.40;89.50
17762;DHT22;9005;48.838;10.112;2023-11-18T21:02:52;4.40;89.90
17762;DHT22;9005;48.838;10.112;2023-11-18T21:05:19;4.40;90.10
17762;DHT22;9005;48.838;10.112;2023-11-18T21:07:46;4.50;90.20
17762;DHT22;9005;48.838;10.112;2023-11-18T21:10:13;4.50;89.90
17762;DHT22;9005;48.838;10.112;2023-11-18T21:12:41;4.50;90.40
17762;DHT22;9005;48.838;10.112;2023-11-18T21:15:09;4.50;90.90
17762;DHT22;9005;48.838;10.112;2023-11-18T21:17:38;4.50;91.10
17762;DHT22;9005;48.838;10.112;2023-11-18T21:20:07;4.50;91.30
17762;DHT22;9005;48.838;10.112;2023-11-18T21:22:38;4.40;91.40
17762;DHT22;9005;48.838;10.112;2023-11-18T21:25:06;4.50;91.50
17762;DHT22;9005;48.838;10.112;2023-11-18T21:27:35;4.50;91.70
17762;DHT22;9005;48.838;10.112;2023-11-18T21:30:02;4.50;91.80
17762;DHT22;9005;48.838;10.112;2023-11-18T21:32:29;4.40;91.80
17762;DHT22;9005;48.838;10.112;2023-11-18T21:34:56;4.40;91.80
17762;DHT22;9005;48.838;10.112;2023-11-18T21:37:24;4.50;91.90
17762;DHT22;9005;48.838;10.112;2023-11-18T21:39:51;4.50;91.90
17762;DHT22;9005;48.838;10.112;2023-11-18T21:42:17;4.50;91.80
17762;DHT22;9005;48.838;10.112;2023-11-18T21:44:46;4.50;91.90
17762;DHT22;9005;48.838;10.112;2023-11-18T21:47:13;4.50;92.00
17762;DHT22;9005;48.838;10.112;2023-11-18T21:49:40;4.50;92.00
17762;DHT22;9005;48.838;10.112;2023-11-18T21:52:07;4.50;92.10
17762;DHT22;9005;48.838;10.112;2023-11-18T21:54:38;4.50;92.10
17762;DHT22;9005;48.838;10.112;2023-11-18T21:57:04;4.60;92.10
17762;DHT22;9005;48.838;10.112;2023-11-18T21:59:33;4.50;92.20
17762;DHT22;9005;48.838;10.112;2023-11-18T22:01:59;4.60;92.10
17762;DHT22;9005;48.838;10.112;2023-11-18T22:04:28;4.60;92.10
17762;DHT22;9005;48.838;10.112;2023-11-18T22:06:55;4.60;92.20
17762;DHT22;9005;48.838;10.112;2023-11-18T22:09:22;4.60;92.30
17762;DHT22;9005;48.838;10.112;2023-11-18T22:11:50;4.60;92.40
17762;DHT22;9005;48.838;10.112;2023-11-18T22:14:17;4.60;92.50
17762;DHT22;9005;48.838;10.112;2023-11-18T22:16:43;4.70;92.50
17762;DHT22;9005;48.838;10.112;2023-11-18T22:19:11;4.70;92.60
17762;DHT22;9005;48.838;10.112;2023-11-18T22:21:40;4.70;92.60
17762;DHT22;9005;48.838;10.112;2023-11-18T22:24:07;4.70;92.50
17762;DHT22;9005;48.838;10.112;2023-11-18T22:26:35;4.70;92.60
17762;DHT22;9005;48.838;10.112;2023-11-18T22:29:03;4.70;92.50
17762;DHT22;9005;48.838;10.112;2023-11-18T22:31:30;4.80;92.70
17762;DHT22;9005;48.838;10.112;2023-11-18T22:33:57;4.80;92.70
17762;DHT22;9005;48.838;10.112;2023-11-18T22:36:24;4.80;92.70
17762;DHT22;9005;48.838;10.112;2023-11-18T22:38:51;4.80;92.80
17762;DHT22;9005;48.838;10.112;2023-11-18T22:41:17;4.80;92.90
17762;DHT22;9005;48.838;10.112;2023-11-18T22:43:44;4.90;92.90
17762;DHT22;9005;48.838;10.112;2023-11-18T22:46:13;4.80;92.90
17762;DHT22;9005;48.838;10.112;2023-11-18T22:48:39;4.90;92.90
17762;DHT22;9005;48.838;10.112;2023-11-18T22:51:06;4.90;92.90
17762;DHT22;9005;48.838;10.112;2023-11-18T22:53:33;4.90;93.00
17762;DHT22;9005;48.838;10.112;2023-11-18T22:56:00;4.90;93.00
17762;DHT22;9005;48.838;10.112;2023-11-18T22:58:26;4.90;93.00
17762;DHT22;9005;48.838;10.112;2023-11-18T23:00:54;4.90;93.00
17762;DHT22;9005;48.838;10.112;2023-11-18T23:03:23;4.90;93.00
17762;DHT22;9005;48.838;10.112;2023-11-18T23:05:51;4.90;93.10
17762;DHT22;9005;48.838;10.112;2023-11-18T23:08:18;5.00;93.00
17762;DHT22;9005;48.838;10.112;2023-11-18T23:10:47;5.00;93.00
17762;DHT22;9005;48.838;10.112;2023-11-18T23:13:13;5.00;93.10
17762;DHT22;9005;48.838;10.112;2023-11-18T23:15:40;5.10;93.10
17762;DHT22;9005;48.838;10.112;2023-11-18T23:18:07;5.00;93.20
17762;DHT22;9005;48.838;10.112;2023-11-18T23:20:36;5.10;93.20